Terminal Aerodrome Forecast
Issued by NWS Cleveland, OH

Home | Current Version | Previous Version | Graphics & Text | Print | Product List | Glossary Off
Versions: 1 2 3 4 5 6 7 8 9 10 11 12 13 14 15 16 17 18 19

124
FTUS41 KCLE 301734
TAFYNG
TAF
KYNG 301734Z 3018/0118 09008KT P6SM BKN025 OVC100
      TEMPO 3018/3020 SCT025 OVC100
     FM302100 10006KT P6SM OVC070
     FM302300 10010KT 6SM -RA OVC035
     FM010100 10010KT 3SM -RA BR OVC015
     FM010400 13008KT 3SM -RA BR OVC004
     FM011500 22010KT 6SM BR OVC008=

USA.gov is the U.S. government's official web portal to all federal, state and local government web resources and services.